sensor_id;sensor_type;location;lat;lon;timestamp;P1;durP1;ratioP1;P2;durP2;ratioP2
67640;SDS011;54434;50.096;20.082;2023-05-28T00:00:59;10.10;;;4.30;;
67640;SDS011;54434;50.096;20.082;2023-05-28T00:03:54;10.40;;;4.30;;
67640;SDS011;54434;50.096;20.082;2023-05-28T00:06:31;9.10;;;4.20;;
67640;SDS011;54434;50.096;20.082;2023-05-28T00:09:08;8.50;;;3.90;;
67640;SDS011;54434;50.096;20.082;2023-05-28T00:11:46;9.80;;;4.20;;
67640;SDS011;54434;50.096;20.082;2023-05-28T00:14:23;8.00;;;4.00;;
67640;SDS011;54434;50.096;20.082;2023-05-28T00:16:59;9.10;;;4.00;;
67640;SDS011;54434;50.096;20.082;2023-05-28T00:19:36;8.30;;;4.10;;
67640;SDS011;54434;50.096;20.082;2023-05-28T00:22:13;8.40;;;3.90;;
67640;SDS011;54434;50.096;20.082;2023-05-28T00:24:50;7.80;;;3.80;;
67640;SDS011;54434;50.096;20.082;2023-05-28T00:27:26;9.40;;;4.10;;
67640;SDS011;54434;50.096;20.082;2023-05-28T00:30:05;9.60;;;4.00;;
67640;SDS011;54434;50.096;20.082;2023-05-28T00:32:43;8.70;;;3.60;;
67640;SDS011;54434;50.096;20.082;2023-05-28T00:35:19;9.50;;;3.90;;
67640;SDS011;54434;50.096;20.082;2023-05-28T00:37:56;9.40;;;3.80;;
67640;SDS011;54434;50.096;20.082;2023-05-28T00:40:32;8.80;;;3.80;;
67640;SDS011;54434;50.096;20.082;2023-05-28T00:43:09;10.00;;;3.70;;
67640;SDS011;54434;50.096;20.082;2023-05-28T00:45:45;7.80;;;3.70;;
67640;SDS011;54434;50.096;20.082;2023-05-28T00:48:22;7.40;;;3.70;;
67640;SDS011;54434;50.096;20.082;2023-05-28T00:51:00;8.30;;;3.80;;
67640;SDS011;54434;50.096;20.082;2023-05-28T00:53:36;7.30;;;3.20;;
67640;SDS011;54434;50.096;20.082;2023-05-28T00:56:13;8.30;;;3.60;;
67640;SDS011;54434;50.096;20.082;2023-05-28T00:58:50;8.80;;;3.60;;
67640;SDS011;54434;50.096;20.082;2023-05-28T01:01:27;9.00;;;3.60;;
67640;SDS011;54434;50.096;20.082;2023-05-28T01:04:04;9.40;;;3.40;;
67640;SDS011;54434;50.096;20.082;2023-05-28T01:06:41;10.60;;;3.70;;
67640;SDS011;54434;50.096;20.082;2023-05-28T01:09:19;7.60;;;3.20;;
67640;SDS011;54434;50.096;20.082;2023-05-28T01:11:56;7.80;;;3.70;;
67640;SDS011;54434;50.096;20.082;2023-05-28T01:14:34;13.00;;;3.40;;
67640;SDS011;54434;50.096;20.082;2023-05-28T01:17:12;8.20;;;3.60;;
67640;SDS011;54434;50.096;20.082;2023-05-28T01:19:49;9.20;;;3.30;;
67640;SDS011;54434;50.096;20.082;2023-05-28T01:22:30;6.80;;;3.30;;
67640;SDS011;54434;50.096;20.082;2023-05-28T01:25:13;10.30;;;3.60;;
67640;SDS011;54434;50.096;20.082;2023-05-28T01:27:50;8.30;;;3.50;;
67640;SDS011;54434;50.096;20.082;2023-05-28T01:30:28;10.80;;;3.30;;
67640;SDS011;54434;50.096;20.082;2023-05-28T01:33:06;6.50;;;3.60;;
67640;SDS011;54434;50.096;20.082;2023-05-28T01:35:44;7.50;;;3.30;;
67640;SDS011;54434;50.096;20.082;2023-05-28T01:38:22;7.90;;;3.60;;
67640;SDS011;54434;50.096;20.082;2023-05-28T01:41:00;6.80;;;3.00;;
67640;SDS011;54434;50.096;20.082;2023-05-28T01:43:38;7.40;;;3.20;;
67640;SDS011;54434;50.096;20.082;2023-05-28T01:46:16;9.90;;;3.40;;
67640;SDS011;54434;50.096;20.082;2023-05-28T01:48:54;11.70;;;3.50;;
67640;SDS011;54434;50.096;20.082;2023-05-28T01:51:30;6.00;;;3.00;;
67640;SDS011;54434;50.096;20.082;2023-05-28T01:54:08;7.70;;;3.30;;
67640;SDS011;54434;50.096;20.082;2023-05-28T01:56:45;6.00;;;3.20;;
67640;SDS011;54434;50.096;20.082;2023-05-28T01:59:21;10.90;;;3.60;;
67640;SDS011;54434;50.096;20.082;2023-05-28T02:01:58;8.80;;;3.60;;
67640;SDS011;54434;50.096;20.082;2023-05-28T02:04:35;8.50;;;3.30;;
67640;SDS011;54434;50.096;20.082;2023-05-28T02:07:11;9.10;;;3.40;;
67640;SDS011;54434;50.096;20.082;2023-05-28T02:09:48;7.10;;;2.80;;
67640;SDS011;54434;50.096;20.082;2023-05-28T02:12:24;7.60;;;3.40;;
67640;SDS011;54434;50.096;20.082;2023-05-28T02:15:02;6.60;;;3.40;;
67640;SDS011;54434;50.096;20.082;2023-05-28T02:17:39;8.90;;;3.60;;
67640;SDS011;54434;50.096;20.082;2023-05-28T02:20:17;9.70;;;3.50;;
67640;SDS011;54434;50.096;20.082;2023-05-28T02:22:54;7.00;;;3.10;;
67640;SDS011;54434;50.096;20.082;2023-05-28T02:25:30;6.40;;;3.30;;
67640;SDS011;54434;50.096;20.082;2023-05-28T02:28:07;6.80;;;3.40;;
67640;SDS011;54434;50.096;20.082;2023-05-28T02:30:44;6.30;;;3.10;;
67640;SDS011;54434;50.096;20.082;2023-05-28T02:33:22;6.10;;;3.30;;
67640;SDS011;54434;50.096;20.082;2023-05-28T02:35:58;5.70;;;2.90;;
67640;SDS011;54434;50.096;20.082;2023-05-28T02:38:35;6.40;;;3.00;;
67640;SDS011;54434;50.096;20.082;2023-05-28T02:41:11;8.80;;;3.40;;
67640;SDS011;54434;50.096;20.082;2023-05-28T02:43:52;6.50;;;3.00;;
67640;SDS011;54434;50.096;20.082;2023-05-28T02:46:29;6.10;;;2.90;;
67640;SDS011;54434;50.096;20.082;2023-05-28T02:49:06;7.40;;;3.10;;
67640;SDS011;54434;50.096;20.082;2023-05-28T02:51:43;8.20;;;2.90;;
67640;SDS011;54434;50.096;20.082;2023-05-28T02:54:34;6.50;;;3.10;;
67640;SDS011;54434;50.096;20.082;2023-05-28T02:57:10;5.80;;;2.70;;
67640;SDS011;54434;50.096;20.082;2023-05-28T02:59:48;8.40;;;3.10;;
67640;SDS011;54434;50.096;20.082;2023-05-28T03:02:25;6.30;;;3.10;;
67640;SDS011;54434;50.096;20.082;2023-05-28T03:05:02;5.50;;;2.80;;
67640;SDS011;54434;50.096;20.082;2023-05-28T03:07:39;9.60;;;3.00;;
67640;SDS011;54434;50.096;20.082;2023-05-28T03:10:15;7.00;;;3.00;;
67640;SDS011;54434;50.096;20.082;2023-05-28T03:12:52;6.80;;;3.20;;
67640;SDS011;54434;50.096;20.082;2023-05-28T03:15:29;7.20;;;2.70;;
67640;SDS011;54434;50.096;20.082;2023-05-28T03:18:06;6.60;;;3.00;;
67640;SDS011;54434;50.096;20.082;2023-05-28T03:20:44;7.20;;;3.10;;
67640;SDS011;54434;50.096;20.082;2023-05-28T03:23:21;8.10;;;3.10;;
67640;SDS011;54434;50.096;20.082;2023-05-28T03:26:10;9.80;;;3.70;;
67640;SDS011;54434;50.096;20.082;2023-05-28T03:28:46;7.20;;;3.50;;
67640;SDS011;54434;50.096;20.082;2023-05-28T03:31:43;7.10;;;3.30;;
67640;SDS011;54434;50.096;20.082;2023-05-28T03:34:25;6.80;;;3.00;;
67640;SDS011;54434;50.096;20.082;2023-05-28T03:37:01;6.80;;;2.80;;
67640;SDS011;54434;50.096;20.082;2023-05-28T03:39:40;7.00;;;3.00;;
67640;SDS011;54434;50.096;20.082;2023-05-28T03:42:18;7.40;;;2.80;;
67640;SDS011;54434;50.096;20.082;2023-05-28T03:44:55;6.50;;;2.90;;
67640;SDS011;54434;50.096;20.082;2023-05-28T03:47:32;9.10;;;2.90;;
67640;SDS011;54434;50.096;20.082;2023-05-28T03:50:11;9.10;;;2.80;;
67640;SDS011;54434;50.096;20.082;2023-05-28T03:52:47;6.20;;;2.50;;
67640;SDS011;54434;50.096;20.082;2023-05-28T03:55:24;6.40;;;3.00;;
67640;SDS011;54434;50.096;20.082;2023-05-28T03:58:01;7.60;;;2.70;;
67640;SDS011;54434;50.096;20.082;2023-05-28T04:00:37;6.40;;;3.20;;
67640;SDS011;54434;50.096;20.082;2023-05-28T04:03:13;6.50;;;2.70;;
67640;SDS011;54434;50.096;20.082;2023-05-28T04:05:50;5.80;;;2.50;;
67640;SDS011;54434;50.096;20.082;2023-05-28T04:08:27;7.50;;;2.50;;
67640;SDS011;54434;50.096;20.082;2023-05-28T04:11:04;6.30;;;2.60;;
67640;SDS011;54434;50.096;20.082;2023-05-28T04:13:41;7.20;;;2.50;;
67640;SDS011;54434;50.096;20.082;2023-05-28T04:16:17;7.50;;;2.50;;
67640;SDS011;54434;50.096;20.082;2023-05-28T04:18:56;6.20;;;2.50;;
67640;SDS011;54434;50.096;20.082;2023-05-28T04:21:34;6.80;;;2.40;;
67640;SDS011;54434;50.096;20.082;2023-05-28T04:24:12;8.40;;;2.40;;
67640;SDS011;54434;50.096;20.082;2023-05-28T04:26:48;7.30;;;2.70;;
67640;SDS011;54434;50.096;20.082;2023-05-28T04:29:27;7.00;;;2.50;;
67640;SDS011;54434;50.096;20.082;2023-05-28T04:32:04;8.10;;;2.50;;
67640;SDS011;54434;50.096;20.082;2023-05-28T04:34:43;5.70;;;2.50;;
67640;SDS011;54434;50.096;20.082;2023-05-28T04:37:20;6.30;;;2.90;;
67640;SDS011;54434;50.096;20.082;2023-05-28T04:39:58;5.10;;;2.40;;
67640;SDS011;54434;50.096;20.082;2023-05-28T04:42:34;6.90;;;2.70;;
67640;SDS011;54434;50.096;20.082;2023-05-28T04:45:12;8.10;;;2.80;;
67640;SDS011;54434;50.096;20.082;2023-05-28T04:47:53;7.40;;;2.80;;
67640;SDS011;54434;50.096;20.082;2023-05-28T04:50:29;7.00;;;2.70;;
67640;SDS011;54434;50.096;20.082;2023-05-28T04:53:06;6.60;;;2.70;;
67640;SDS011;54434;50.096;20.082;2023-05-28T04:55:42;8.70;;;3.10;;
67640;SDS011;54434;50.096;20.082;2023-05-28T04:58:19;6.30;;;2.60;;
67640;SDS011;54434;50.096;20.082;2023-05-28T05:00:55;7.20;;;3.00;;
67640;SDS011;54434;50.096;20.082;2023-05-28T05:03:33;7.20;;;2.90;;
67640;SDS011;54434;50.096;20.082;2023-05-28T05:06:10;7.00;;;2.90;;
67640;SDS011;54434;50.096;20.082;2023-05-28T05:08:47;8.40;;;3.10;;
67640;SDS011;54434;50.096;20.082;2023-05-28T05:11:23;11.30;;;3.20;;
67640;SDS011;54434;50.096;20.082;2023-05-28T05:14:00;7.10;;;3.10;;
67640;SDS011;54434;50.096;20.082;2023-05-28T05:16:37;6.50;;;2.90;;
67640;SDS011;54434;50.096;20.082;2023-05-28T05:19:14;7.10;;;3.00;;
67640;SDS011;54434;50.096;20.082;2023-05-28T05:21:50;8.90;;;2.90;;
67640;SDS011;54434;50.096;20.082;2023-05-28T05:24:27;9.00;;;3.20;;
67640;SDS011;54434;50.096;20.082;2023-05-28T05:27:04;10.00;;;3.40;;
67640;SDS011;54434;50.096;20.082;2023-05-28T05:29:41;7.10;;;3.20;;
67640;SDS011;54434;50.096;20.082;2023-05-28T05:32:17;8.00;;;2.80;;
67640;SDS011;54434;50.096;20.082;2023-05-28T05:34:57;7.30;;;3.00;;
67640;SDS011;54434;50.096;20.082;2023-05-28T05:37:53;8.10;;;3.10;;
67640;SDS011;54434;50.096;20.082;2023-05-28T05:43:22;7.60;;;3.80;;
67640;SDS011;54434;50.096;20.082;2023-05-28T05:45:58;7.80;;;3.30;;
67640;SDS011;54434;50.096;20.082;2023-05-28T05:48:35;10.00;;;3.70;;
67640;SDS011;54434;50.096;20.082;2023-05-28T05:51:11;6.40;;;3.20;;
67640;SDS011;54434;50.096;20.082;2023-05-28T05:53:51;7.40;;;3.30;;
67640;SDS011;54434;50.096;20.082;2023-05-28T05:56:27;8.60;;;3.40;;
67640;SDS011;54434;50.096;20.082;2023-05-28T05:59:05;6.70;;;3.10;;
67640;SDS011;54434;50.096;20.082;2023-05-28T06:01:41;12.00;;;3.50;;
67640;SDS011;54434;50.096;20.082;2023-05-28T06:04:18;8.50;;;3.30;;
67640;SDS011;54434;50.096;20.082;2023-05-28T06:07:41;8.30;;;3.40;;
67640;SDS011;54434;50.096;20.082;2023-05-28T06:11:05;6.70;;;3.40;;
67640;SDS011;54434;50.096;20.082;2023-05-28T06:13:42;6.50;;;3.20;;
67640;SDS011;54434;50.096;20.082;2023-05-28T06:16:19;8.10;;;3.20;;
67640;SDS011;54434;50.096;20.082;2023-05-28T06:18:56;9.70;;;3.20;;
67640;SDS011;54434;50.096;20.082;2023-05-28T06:21:33;7.00;;;3.00;;
67640;SDS011;54434;50.096;20.082;2023-05-28T06:24:11;8.70;;;3.60;;
67640;SDS011;54434;50.096;20.082;2023-05-28T06:26:50;7.80;;;3.60;;
67640;SDS011;54434;50.096;20.082;2023-05-28T06:29:27;10.70;;;3.50;;
67640;SDS011;54434;50.096;20.082;2023-05-28T06:32:04;7.20;;;2.80;;
67640;SDS011;54434;50.096;20.082;2023-05-28T06:34:41;7.80;;;3.20;;
67640;SDS011;54434;50.096;20.082;2023-05-28T06:37:18;7.10;;;3.10;;
67640;SDS011;54434;50.096;20.082;2023-05-28T06:39:54;7.20;;;3.10;;
67640;SDS011;54434;50.096;20.082;2023-05-28T06:42:31;9.10;;;3.30;;
67640;SDS011;54434;50.096;20.082;2023-05-28T06:45:38;8.60;;;3.10;;
67640;SDS011;54434;50.096;20.082;2023-05-28T06:48:17;8.10;;;3.40;;
67640;SDS011;54434;50.096;20.082;2023-05-28T06:50:53;7.20;;;3.20;;
67640;SDS011;54434;50.096;20.082;2023-05-28T06:53:31;6.50;;;3.20;;
67640;SDS011;54434;50.096;20.082;2023-05-28T06:56:10;6.40;;;3.20;;
67640;SDS011;54434;50.096;20.082;2023-05-28T06:59:27;5.90;;;3.00;;
67640;SDS011;54434;50.096;20.082;2023-05-28T07:02:23;5.50;;;2.70;;
67640;SDS011;54434;50.096;20.082;2023-05-28T07:05:16;6.80;;;2.70;;
67640;SDS011;54434;50.096;20.082;2023-05-28T07:07:52;9.40;;;3.00;;
67640;SDS011;54434;50.096;20.082;2023-05-28T07:10:29;5.50;;;2.80;;
67640;SDS011;54434;50.096;20.082;2023-05-28T07:13:06;10.90;;;2.90;;
67640;SDS011;54434;50.096;20.082;2023-05-28T07:15:43;7.20;;;2.80;;
67640;SDS011;54434;50.096;20.082;2023-05-28T07:18:19;7.60;;;3.30;;
67640;SDS011;54434;50.096;20.082;2023-05-28T07:21:00;7.80;;;2.70;;
67640;SDS011;54434;50.096;20.082;2023-05-28T07:23:46;6.20;;;2.80;;
67640;SDS011;54434;50.096;20.082;2023-05-28T07:26:23;6.80;;;2.70;;
67640;SDS011;54434;50.096;20.082;2023-05-28T07:29:00;5.50;;;2.80;;
67640;SDS011;54434;50.096;20.082;2023-05-28T07:31:36;4.90;;;2.40;;
67640;SDS011;54434;50.096;20.082;2023-05-28T07:34:15;7.10;;;2.70;;
67640;SDS011;54434;50.096;20.082;2023-05-28T07:36:52;5.40;;;2.30;;
67640;SDS011;54434;50.096;20.082;2023-05-28T07:39:29;6.50;;;2.60;;
67640;SDS011;54434;50.096;20.082;2023-05-28T07:42:06;6.20;;;2.40;;
67640;SDS011;54434;50.096;20.082;2023-05-28T07:44:47;5.00;;;2.30;;
67640;SDS011;54434;50.096;20.082;2023-05-28T07:47:24;6.80;;;2.20;;
67640;SDS011;54434;50.096;20.082;2023-05-28T07:50:16;4.70;;;2.40;;
67640;SDS011;54434;50.096;20.082;2023-05-28T07:53:07;5.00;;;2.40;;
67640;SDS011;54434;50.096;20.082;2023-05-28T07:55:45;7.30;;;3.20;;
67640;SDS011;54434;50.096;20.082;2023-05-28T07:58:21;6.20;;;2.40;;
67640;SDS011;54434;50.096;20.082;2023-05-28T08:00:59;5.40;;;2.60;;
67640;SDS011;54434;50.096;20.082;2023-05-28T08:03:36;5.20;;;2.40;;
67640;SDS011;54434;50.096;20.082;2023-05-28T08:06:13;5.60;;;2.20;;
67640;SDS011;54434;50.096;20.082;2023-05-28T08:08:50;4.80;;;2.30;;
67640;SDS011;54434;50.096;20.082;2023-05-28T08:11:27;6.40;;;2.30;;
67640;SDS011;54434;50.096;20.082;2023-05-28T08:14:04;7.20;;;2.60;;
67640;SDS011;54434;50.096;20.082;2023-05-28T08:16:41;6.40;;;2.40;;
67640;SDS011;54434;50.096;20.082;2023-05-28T08:19:54;5.10;;;2.50;;
67640;SDS011;54434;50.096;20.082;2023-05-28T08:22:42;6.50;;;2.30;;
67640;SDS011;54434;50.096;20.082;2023-05-28T08:25:19;5.50;;;2.20;;
67640;SDS011;54434;50.096;20.082;2023-05-28T08:27:58;5.80;;;2.10;;
67640;SDS011;54434;50.096;20.082;2023-05-28T08:30:35;4.90;;;2.00;;
67640;SDS011;54434;50.096;20.082;2023-05-28T08:33:19;9.80;;;2.20;;
67640;SDS011;54434;50.096;20.082;2023-05-28T08:35:56;4.30;;;2.10;;
67640;SDS011;54434;50.096;20.082;2023-05-28T08:38:34;6.50;;;2.10;;
67640;SDS011;54434;50.096;20.082;2023-05-28T08:41:11;8.00;;;2.20;;
67640;SDS011;54434;50.096;20.082;2023-05-28T08:43:49;4.80;;;2.20;;
67640;SDS011;54434;50.096;20.082;2023-05-28T08:46:26;11.20;;;2.40;;
67640;SDS011;54434;50.096;20.082;2023-05-28T08:49:29;6.70;;;2.40;;
67640;SDS011;54434;50.096;20.082;2023-05-28T08:52:12;6.40;;;2.20;;
67640;SDS011;54434;50.096;20.082;2023-05-28T08:54:54;7.10;;;2.10;;
67640;SDS011;54434;50.096;20.082;2023-05-28T08:57:33;5.00;;;2.30;;
67640;SDS011;54434;50.096;20.082;2023-05-28T09:00:13;5.40;;;2.20;;
67640;SDS011;54434;50.096;20.082;2023-05-28T09:03:31;6.20;;;2.20;;
67640;SDS011;54434;50.096;20.082;2023-05-28T09:06:17;5.50;;;2.00;;
67640;SDS011;54434;50.096;20.082;2023-05-28T09:08:58;5.70;;;2.20;;
67640;SDS011;54434;50.096;20.082;2023-05-28T09:12:02;6.70;;;2.50;;
67640;SDS011;54434;50.096;20.082;2023-05-28T09:14:42;4.80;;;2.10;;
67640;SDS011;54434;50.096;20.082;2023-05-28T09:17:33;5.50;;;2.20;;
67640;SDS011;54434;50.096;20.082;2023-05-28T09:20:17;5.10;;;2.40;;
67640;SDS011;54434;50.096;20.082;2023-05-28T09:23:02;5.70;;;2.10;;
67640;SDS011;54434;50.096;20.082;2023-05-28T09:26:12;6.10;;;2.10;;
67640;SDS011;54434;50.096;20.082;2023-05-28T09:28:55;5.10;;;2.00;;
67640;SDS011;54434;50.096;20.082;2023-05-28T09:31:33;5.30;;;2.10;;
67640;SDS011;54434;50.096;20.082;2023-05-28T09:34:10;4.90;;;2.00;;
67640;SDS011;54434;50.096;20.082;2023-05-28T09:36:46;4.20;;;2.30;;
67640;SDS011;54434;50.096;20.082;2023-05-28T09:39:28;7.80;;;2.30;;
67640;SDS011;54434;50.096;20.082;2023-05-28T09:42:07;6.50;;;2.30;;
67640;SDS011;54434;50.096;20.082;2023-05-28T09:44:45;6.20;;;2.30;;
67640;SDS011;54434;50.096;20.082;2023-05-28T09:47:22;6.00;;;2.40;;
67640;SDS011;54434;50.096;20.082;2023-05-28T09:49:59;5.90;;;2.50;;
67640;SDS011;54434;50.096;20.082;2023-05-28T09:52:35;6.80;;;2.40;;
67640;SDS011;54434;50.096;20.082;2023-05-28T09:55:15;5.60;;;2.50;;
67640;SDS011;54434;50.096;20.082;2023-05-28T09:58:01;7.60;;;2.20;;
67640;SDS011;54434;50.096;20.082;2023-05-28T10:00:43;8.70;;;2.30;;
67640;SDS011;54434;50.096;20.082;2023-05-28T10:03:36;7.50;;;2.30;;
67640;SDS011;54434;50.096;20.082;2023-05-28T10:06:21;11.20;;;2.40;;
67640;SDS011;54434;50.096;20.082;2023-05-28T10:09:00;7.10;;;2.50;;
67640;SDS011;54434;50.096;20.082;2023-05-28T10:11:41;5.80;;;2.20;;
67640;SDS011;54434;50.096;20.082;2023-05-28T10:14:21;7.30;;;2.30;;
67640;SDS011;54434;50.096;20.082;2023-05-28T10:16:59;6.20;;;2.60;;
67640;SDS011;54434;50.096;20.082;2023-05-28T10:19:37;4.60;;;2.20;;
67640;SDS011;54434;50.096;20.082;2023-05-28T10:22:15;8.80;;;2.40;;
67640;SDS011;54434;50.096;20.082;2023-05-28T10:24:52;4.90;;;2.50;;
67640;SDS011;54434;50.096;20.082;2023-05-28T10:27:34;7.50;;;2.50;;
67640;SDS011;54434;50.096;20.082;2023-05-28T10:30:14;5.30;;;2.40;;
67640;SDS011;54434;50.096;20.082;2023-05-28T10:33:11;5.80;;;2.20;;
67640;SDS011;54434;50.096;20.082;2023-05-28T10:35:57;7.30;;;2.40;;
67640;SDS011;54434;50.096;20.082;2023-05-28T10:38:42;9.50;;;2.50;;
67640;SDS011;54434;50.096;20.082;2023-05-28T10:41:23;9.00;;;2.60;;
67640;SDS011;54434;50.096;20.082;2023-05-28T10:44:09;5.30;;;2.30;;
67640;SDS011;54434;50.096;20.082;2023-05-28T10:46:46;3.90;;;2.30;;
67640;SDS011;54434;50.096;20.082;2023-05-28T10:49:31;7.40;;;2.20;;
67640;SDS011;54434;50.096;20.082;2023-05-28T10:52:07;5.60;;;2.10;;
67640;SDS011;54434;50.096;20.082;2023-05-28T10:54:55;9.50;;;2.50;;
67640;SDS011;54434;50.096;20.082;2023-05-28T10:57:44;4.30;;;2.30;;
67640;SDS011;54434;50.096;20.082;2023-05-28T11:00:28;6.30;;;2.30;;
67640;SDS011;54434;50.096;20.082;2023-05-28T11:03:04;7.70;;;2.30;;
67640;SDS011;54434;50.096;20.082;2023-05-28T11:05:41;5.60;;;2.30;;
67640;SDS011;54434;50.096;20.082;2023-05-28T11:08:17;5.10;;;2.40;;
67640;SDS011;54434;50.096;20.082;2023-05-28T11:10:54;8.80;;;2.60;;
67640;SDS011;54434;50.096;20.082;2023-05-28T11:13:32;6.50;;;2.60;;
67640;SDS011;54434;50.096;20.082;2023-05-28T11:16:13;6.70;;;2.60;;
67640;SDS011;54434;50.096;20.082;2023-05-28T11:19:05;5.70;;;2.50;;
67640;SDS011;54434;50.096;20.082;2023-05-28T11:21:54;4.20;;;2.30;;
67640;SDS011;54434;50.096;20.082;2023-05-28T11:24:31;8.50;;;2.40;;
67640;SDS011;54434;50.096;20.082;2023-05-28T11:27:23;5.10;;;2.40;;
67640;SDS011;54434;50.096;20.082;2023-05-28T11:30:02;5.60;;;2.40;;
67640;SDS011;54434;50.096;20.082;2023-05-28T11:32:42;6.90;;;2.60;;
67640;SDS011;54434;50.096;20.082;2023-05-28T11:35:19;6.30;;;2.40;;
67640;SDS011;54434;50.096;20.082;2023-05-28T11:38:00;9.20;;;2.20;;
67640;SDS011;54434;50.096;20.082;2023-05-28T11:40:37;6.30;;;2.30;;
67640;SDS011;54434;50.096;20.082;2023-05-28T11:43:13;6.90;;;2.10;;
67640;SDS011;54434;50.096;20.082;2023-05-28T11:45:50;5.50;;;2.10;;
67640;SDS011;54434;50.096;20.082;2023-05-28T11:48:35;7.20;;;2.20;;
67640;SDS011;54434;50.096;20.082;2023-05-28T11:51:12;5.90;;;2.30;;
67640;SDS011;54434;50.096;20.082;2023-05-28T11:53:49;5.70;;;2.10;;
67640;SDS011;54434;50.096;20.082;2023-05-28T11:56:29;6.80;;;2.50;;
67640;SDS011;54434;50.096;20.082;2023-05-28T11:59:09;5.20;;;2.10;;
67640;SDS011;54434;50.096;20.082;2023-05-28T12:01:46;4.80;;;2.30;;
67640;SDS011;54434;50.096;20.082;2023-05-28T12:04:25;6.90;;;2.40;;
67640;SDS011;54434;50.096;20.082;2023-05-28T12:07:03;4.80;;;2.00;;
67640;SDS011;54434;50.096;20.082;2023-05-28T12:09:40;10.10;;;2.40;;
67640;SDS011;54434;50.096;20.082;2023-05-28T12:12:16;7.60;;;2.00;;
67640;SDS011;54434;50.096;20.082;2023-05-28T12:14:53;5.20;;;2.00;;
67640;SDS011;54434;50.096;20.082;2023-05-28T12:17:38;5.30;;;2.00;;
67640;SDS011;54434;50.096;20.082;2023-05-28T12:20:39;4.90;;;2.20;;
67640;SDS011;54434;50.096;20.082;2023-05-28T12:23:21;6.40;;;2.20;;
67640;SDS011;54434;50.096;20.082;2023-05-28T12:25:59;5.00;;;2.10;;
67640;SDS011;54434;50.096;20.082;2023-05-28T12:28:36;7.70;;;2.30;;
67640;SDS011;54434;50.096;20.082;2023-05-28T12:31:14;4.70;;;2.10;;
67640;SDS011;54434;50.096;20.082;2023-05-28T12:33:51;5.30;;;2.20;;
67640;SDS011;54434;50.096;20.082;2023-05-28T12:36:28;9.70;;;2.20;;
67640;SDS011;54434;50.096;20.082;2023-05-28T12:39:06;4.10;;;1.90;;
67640;SDS011;54434;50.096;20.082;2023-05-28T12:41:42;8.90;;;2.10;;
67640;SDS011;54434;50.096;20.082;2023-05-28T12:44:19;5.90;;;2.20;;
67640;SDS011;54434;50.096;20.082;2023-05-28T12:46:55;5.60;;;2.00;;
67640;SDS011;54434;50.096;20.082;2023-05-28T12:49:32;4.60;;;2.10;;
67640;SDS011;54434;50.096;20.082;2023-05-28T12:52:08;5.40;;;2.00;;
67640;SDS011;54434;50.096;20.082;2023-05-28T12:54:45;7.40;;;2.10;;
67640;SDS011;54434;50.096;20.082;2023-05-28T12:57:23;5.10;;;2.10;;
67640;SDS011;54434;50.096;20.082;2023-05-28T13:00:00;4.60;;;2.00;;
67640;SDS011;54434;50.096;20.082;2023-05-28T13:02:44;7.70;;;2.20;;
67640;SDS011;54434;50.096;20.082;2023-05-28T13:05:21;4.90;;;2.00;;
67640;SDS011;54434;50.096;20.082;2023-05-28T13:07:58;7.20;;;2.10;;
67640;SDS011;54434;50.096;20.082;2023-05-28T13:10:35;7.30;;;2.60;;
67640;SDS011;54434;50.096;20.082;2023-05-28T13:13:12;7.80;;;2.20;;
67640;SDS011;54434;50.096;20.082;2023-05-28T13:15:49;8.20;;;2.10;;
67640;SDS011;54434;50.096;20.082;2023-05-28T13:18:25;3.80;;;2.10;;
67640;SDS011;54434;50.096;20.082;2023-05-28T13:21:02;4.50;;;2.00;;
67640;SDS011;54434;50.096;20.082;2023-05-28T13:23:39;3.90;;;2.10;;
67640;SDS011;54434;50.096;20.082;2023-05-28T13:26:16;7.10;;;2.60;;
67640;SDS011;54434;50.096;20.082;2023-05-28T13:28:52;6.60;;;2.20;;
67640;SDS011;54434;50.096;20.082;2023-05-28T13:31:29;5.80;;;2.50;;
67640;SDS011;54434;50.096;20.082;2023-05-28T13:34:06;2.70;;;1.70;;
67640;SDS011;54434;50.096;20.082;2023-05-28T13:36:42;4.70;;;2.00;;
67640;SDS011;54434;50.096;20.082;2023-05-28T13:39:18;4.90;;;2.30;;
67640;SDS011;54434;50.096;20.082;2023-05-28T13:41:55;4.40;;;2.00;;
67640;SDS011;54434;50.096;20.082;2023-05-28T13:44:32;4.80;;;2.20;;
67640;SDS011;54434;50.096;20.082;2023-05-28T13:47:09;6.40;;;2.30;;
67640;SDS011;54434;50.096;20.082;2023-05-28T13:49:46;5.20;;;2.10;;
67640;SDS011;54434;50.096;20.082;2023-05-28T13:52:22;5.60;;;2.10;;
67640;SDS011;54434;50.096;20.082;2023-05-28T13:54:59;5.90;;;1.90;;
67640;SDS011;54434;50.096;20.082;2023-05-28T13:57:36;5.80;;;2.30;;
67640;SDS011;54434;50.096;20.082;2023-05-28T14:00:16;5.10;;;2.00;;
67640;SDS011;54434;50.096;20.082;2023-05-28T14:03:11;11.40;;;4.30;;
67640;SDS011;54434;50.096;20.082;2023-05-28T14:05:48;8.80;;;3.30;;
67640;SDS011;54434;50.096;20.082;2023-05-28T14:08:25;3.60;;;1.90;;
67640;SDS011;54434;50.096;20.082;2023-05-28T14:11:02;9.30;;;3.30;;
67640;SDS011;54434;50.096;20.082;2023-05-28T14:13:38;11.20;;;2.90;;
67640;SDS011;54434;50.096;20.082;2023-05-28T14:16:15;6.30;;;2.10;;
67640;SDS011;54434;50.096;20.082;2023-05-28T14:18:51;6.00;;;2.20;;
67640;SDS011;54434;50.096;20.082;2023-05-28T14:21:28;6.90;;;3.30;;
67640;SDS011;54434;50.096;20.082;2023-05-28T14:24:04;8.50;;;4.90;;
67640;SDS011;54434;50.096;20.082;2023-05-28T14:26:41;4.50;;;2.20;;
67640;SDS011;54434;50.096;20.082;2023-05-28T14:29:17;7.60;;;3.30;;
67640;SDS011;54434;50.096;20.082;2023-05-28T14:31:53;7.40;;;3.60;;
67640;SDS011;54434;50.096;20.082;2023-05-28T14:34:30;4.20;;;2.20;;
67640;SDS011;54434;50.096;20.082;2023-05-28T14:37:07;5.50;;;2.00;;
67640;SDS011;54434;50.096;20.082;2023-05-28T14:39:43;6.40;;;2.10;;
67640;SDS011;54434;50.096;20.082;2023-05-28T14:42:20;6.90;;;2.10;;
67640;SDS011;54434;50.096;20.082;2023-05-28T14:44:56;4.90;;;2.30;;
67640;SDS011;54434;50.096;20.082;2023-05-28T14:47:32;6.00;;;2.20;;
67640;SDS011;54434;50.096;20.082;2023-05-28T14:50:11;7.00;;;2.20;;
67640;SDS011;54434;50.096;20.082;2023-05-28T14:52:48;7.20;;;2.30;;
67640;SDS011;54434;50.096;20.082;2023-05-28T14:55:25;6.90;;;1.90;;
67640;SDS011;54434;50.096;20.082;2023-05-28T14:58:01;4.00;;;2.00;;
67640;SDS011;54434;50.096;20.082;2023-05-28T15:00:38;4.50;;;2.10;;
67640;SDS011;54434;50.096;20.082;2023-05-28T15:03:14;6.70;;;1.70;;
67640;SDS011;54434;50.096;20.082;2023-05-28T15:05:51;4.00;;;2.00;;
67640;SDS011;54434;50.096;20.082;2023-05-28T15:08:28;6.80;;;2.00;;
67640;SDS011;54434;50.096;20.082;2023-05-28T15:11:05;6.70;;;2.10;;
67640;SDS011;54434;50.096;20.082;2023-05-28T15:13:43;7.30;;;2.20;;
67640;SDS011;54434;50.096;20.082;2023-05-28T15:16:20;7.30;;;2.00;;
67640;SDS011;54434;50.096;20.082;2023-05-28T15:18:57;5.40;;;2.00;;
67640;SDS011;54434;50.096;20.082;2023-05-28T15:21:33;3.30;;;1.90;;
67640;SDS011;54434;50.096;20.082;2023-05-28T15:24:11;3.90;;;2.00;;
67640;SDS011;54434;50.096;20.082;2023-05-28T15:26:48;6.50;;;2.10;;
67640;SDS011;54434;50.096;20.082;2023-05-28T15:29:27;3.40;;;2.00;;
67640;SDS011;54434;50.096;20.082;2023-05-28T15:32:06;3.80;;;1.90;;
67640;SDS011;54434;50.096;20.082;2023-05-28T15:34:45;4.10;;;1.90;;
67640;SDS011;54434;50.096;20.082;2023-05-28T15:37:22;4.80;;;1.90;;
67640;SDS011;54434;50.096;20.082;2023-05-28T15:40:01;5.70;;;2.20;;
67640;SDS011;54434;50.096;20.082;2023-05-28T15:42:40;4.70;;;2.10;;
67640;SDS011;54434;50.096;20.082;2023-05-28T15:45:19;5.30;;;1.90;;
67640;SDS011;54434;50.096;20.082;2023-05-28T15:47:55;5.00;;;2.10;;